sensor_id;sensor_type;location;lat;lon;timestamp;pressure;altitude;pressure_sealevel;temperature;humidity
23867;BME280;12114;53.404;-1.502;2022-12-18T00:00:56;101141.25;;;0.69;100.00
23867;BME280;12114;53.404;-1.502;2022-12-18T00:03:21;101136.31;;;0.71;100.00
23867;BME280;12114;53.404;-1.502;2022-12-18T00:05:49;101132.50;;;0.72;100.00
23867;BME280;12114;53.404;-1.502;2022-12-18T00:08:15;101122.34;;;0.77;100.00
23867;BME280;12114;53.404;-1.502;2022-12-18T00:10:42;101117.69;;;0.83;100.00
23867;BME280;12114;53.404;-1.502;2022-12-18T00:13:08;101125.63;;;0.84;100.00
23867;BME280;12114;53.404;-1.502;2022-12-18T00:15:35;101121.50;;;0.87;100.00
23867;BME280;12114;53.404;-1.502;2022-12-18T00:18:00;101127.78;;;0.92;100.00
23867;BME280;12114;53.404;-1.502;2022-12-18T00:20:26;101132.16;;;0.98;100.00
23867;BME280;12114;53.404;-1.502;2022-12-18T00:22:52;101133.25;;;1.02;100.00
23867;BME280;12114;53.404;-1.502;2022-12-18T00:25:18;101131.59;;;1.01;100.00
23867;BME280;12114;53.404;-1.502;2022-12-18T00:27:43;101129.69;;;1.02;100.00
23867;BME280;12114;53.404;-1.502;2022-12-18T00:30:09;101135.16;;;1.02;100.00
23867;BME280;12114;53.404;-1.502;2022-12-18T00:32:35;101138.69;;;0.97;100.00
23867;BME280;12114;53.404;-1.502;2022-12-18T00:35:01;101148.84;;;0.92;100.00
23867;BME280;12114;53.404;-1.502;2022-12-18T00:37:29;101145.84;;;0.83;100.00
23867;BME280;12114;53.404;-1.502;2022-12-18T00:39:57;101143.97;;;0.79;100.00
23867;BME280;12114;53.404;-1.502;2022-12-18T00:42:24;101149.72;;;0.72;100.00
23867;BME280;12114;53.404;-1.502;2022-12-18T00:45:08;101151.06;;;0.80;100.00
23867;BME280;12114;53.404;-1.502;2022-12-18T00:47:33;101143.94;;;0.84;100.00
23867;BME280;12114;53.404;-1.502;2022-12-18T00:49:59;101145.03;;;0.88;100.00
23867;BME280;12114;53.404;-1.502;2022-12-18T00:52:24;101139.28;;;0.89;100.00
23867;BME280;12114;53.404;-1.502;2022-12-18T00:54:50;101147.22;;;0.91;100.00
23867;BME280;12114;53.404;-1.502;2022-12-18T00:57:15;101149.97;;;0.91;100.00
23867;BME280;12114;53.404;-1.502;2022-12-18T00:59:41;101144.50;;;0.91;100.00
23867;BME280;12114;53.404;-1.502;2022-12-18T01:02:06;101148.28;;;0.95;100.00
23867;BME280;12114;53.404;-1.502;2022-12-18T01:04:32;101166.06;;;0.97;100.00
23867;BME280;12114;53.404;-1.502;2022-12-18T01:06:58;101163.34;;;0.92;100.00
23867;BME280;12114;53.404;-1.502;2022-12-18T01:09:23;101163.06;;;0.89;100.00
23867;BME280;12114;53.404;-1.502;2022-12-18T01:11:50;101164.75;;;0.85;100.00
23867;BME280;12114;53.404;-1.502;2022-12-18T01:14:15;101162.56;;;0.77;100.00
23867;BME280;12114;53.404;-1.502;2022-12-18T01:16:41;101165.03;;;0.68;100.00
23867;BME280;12114;53.404;-1.502;2022-12-18T01:19:07;101164.22;;;0.63;100.00
23867;BME280;12114;53.404;-1.502;2022-12-18T01:21:33;101165.03;;;0.63;100.00
23867;BME280;12114;53.404;-1.502;2022-12-18T01:23:58;101158.47;;;0.64;100.00
23867;BME280;12114;53.404;-1.502;2022-12-18T01:26:24;101151.09;;;0.65;100.00
23867;BME280;12114;53.404;-1.502;2022-12-18T01:28:51;101156.81;;;0.58;100.00
23867;BME280;12114;53.404;-1.502;2022-12-18T01:31:19;101150.53;;;0.52;100.00
23867;BME280;12114;53.404;-1.502;2022-12-18T01:33:46;101154.09;;;0.43;100.00
23867;BME280;12114;53.404;-1.502;2022-12-18T01:36:20;101154.66;;;0.40;100.00
23867;BME280;12114;53.404;-1.502;2022-12-18T01:38:46;101154.66;;;0.40;100.00
23867;BME280;12114;53.404;-1.502;2022-12-18T01:41:13;101157.13;;;0.36;100.00
23867;BME280;12114;53.404;-1.502;2022-12-18T01:46:07;101160.66;;;0.32;100.00
23867;BME280;12114;53.404;-1.502;2022-12-18T01:48:32;101159.03;;;0.31;100.00
23867;BME280;12114;53.404;-1.502;2022-12-18T01:50:58;101165.84;;;0.28;100.00
23867;BME280;12114;53.404;-1.502;2022-12-18T01:53:26;101159.84;;;0.26;100.00
23867;BME280;12114;53.404;-1.502;2022-12-18T01:55:54;101160.66;;;0.22;100.00
23867;BME280;12114;53.404;-1.502;2022-12-18T02:00:55;101168.03;;;0.11;100.00
23867;BME280;12114;53.404;-1.502;2022-12-18T02:03:20;101176.22;;;0.11;100.00
23867;BME280;12114;53.404;-1.502;2022-12-18T02:06:12;101174.59;;;0.10;100.00
23867;BME280;12114;53.404;-1.502;2022-12-18T02:08:48;101163.38;;;0.07;100.00
23867;BME280;12114;53.404;-1.502;2022-12-18T02:16:45;101170.75;;;-0.04;100.00
23867;BME280;12114;53.404;-1.502;2022-12-18T02:22:25;101165.25;;;-0.14;100.00
23867;BME280;12114;53.404;-1.502;2022-12-18T02:27:32;101173.69;;;-0.21;100.00
23867;BME280;12114;53.404;-1.502;2022-12-18T02:30:01;101178.63;;;-0.28;100.00
23867;BME280;12114;53.404;-1.502;2022-12-18T02:32:31;101172.03;;;-0.37;100.00
23867;BME280;12114;53.404;-1.502;2022-12-18T02:34:59;101175.84;;;-0.43;100.00
23867;BME280;12114;53.404;-1.502;2022-12-18T02:37:27;101177.69;;;-0.48;100.00
23867;BME280;12114;53.404;-1.502;2022-12-18T02:39:55;101173.31;;;-0.55;100.00
23867;BME280;12114;53.404;-1.502;2022-12-18T02:42:22;101185.28;;;-0.61;100.00
23867;BME280;12114;53.404;-1.502;2022-12-18T02:44:50;101176.56;;;-0.63;100.00
23867;BME280;12114;53.404;-1.502;2022-12-18T02:47:20;101181.19;;;-0.63;100.00
23867;BME280;12114;53.404;-1.502;2022-12-18T03:03:05;101165.34;;;-0.71;100.00
23867;BME280;12114;53.404;-1.502;2022-12-18T03:05:55;101158.81;;;-0.70;100.00
23867;BME280;12114;53.404;-1.502;2022-12-18T03:08:26;101161.25;;;-0.69;100.00
23867;BME280;12114;53.404;-1.502;2022-12-18T03:11:01;101160.44;;;-0.69;100.00
23867;BME280;12114;53.404;-1.502;2022-12-18T03:13:37;101150.34;;;-0.74;100.00
23867;BME280;12114;53.404;-1.502;2022-12-18T03:16:07;101145.41;;;-0.77;100.00
23867;BME280;12114;53.404;-1.502;2022-12-18T03:21:04;101148.91;;;-0.81;100.00
23867;BME280;12114;53.404;-1.502;2022-12-18T03:23:35;101154.13;;;-0.80;100.00
23867;BME280;12114;53.404;-1.502;2022-12-18T03:26:07;101156.03;;;-0.80;100.00
23867;BME280;12114;53.404;-1.502;2022-12-18T03:28:47;101146.50;;;-0.78;100.00
23867;BME280;12114;53.404;-1.502;2022-12-18T03:31:15;101146.78;;;-0.74;100.00
23867;BME280;12114;53.404;-1.502;2022-12-18T03:33:47;101143.00;;;-0.68;100.00
23867;BME280;12114;53.404;-1.502;2022-12-18T03:36:17;101134.81;;;-0.63;100.00
23867;BME280;12114;53.404;-1.502;2022-12-18T03:38:44;101139.47;;;-0.59;100.00
23867;BME280;12114;53.404;-1.502;2022-12-18T03:41:28;101136.75;;;-0.53;100.00
23867;BME280;12114;53.404;-1.502;2022-12-18T03:44:03;101123.66;;;-0.62;100.00
23867;BME280;12114;53.404;-1.502;2022-12-18T03:49:46;101106.47;;;-0.57;100.00
23867;BME280;12114;53.404;-1.502;2022-12-18T03:52:22;101110.28;;;-0.53;100.00
23867;BME280;12114;53.404;-1.502;2022-12-18T03:54:52;101099.63;;;-0.55;100.00
23867;BME280;12114;53.404;-1.502;2022-12-18T03:57:23;101093.91;;;-0.58;100.00
23867;BME280;12114;53.404;-1.502;2022-12-18T03:59:56;101081.06;;;-0.58;100.00
23867;BME280;12114;53.404;-1.502;2022-12-18T04:02:24;101065.81;;;-0.59;100.00
23867;BME280;12114;53.404;-1.502;2022-12-18T04:04:52;101061.19;;;-0.58;100.00
23867;BME280;12114;53.404;-1.502;2022-12-18T04:07:19;101054.88;;;-0.64;100.00
23867;BME280;12114;53.404;-1.502;2022-12-18T04:09:48;101060.84;;;-0.67;100.00
23867;BME280;12114;53.404;-1.502;2022-12-18T04:12:14;101060.59;;;-0.70;100.00
23867;BME280;12114;53.404;-1.502;2022-12-18T04:14:40;101054.84;;;-0.74;100.00
23867;BME280;12114;53.404;-1.502;2022-12-18T04:17:05;101047.50;;;-0.73;100.00
23867;BME280;12114;53.404;-1.502;2022-12-18T04:19:31;101043.13;;;-0.74;100.00
23867;BME280;12114;53.404;-1.502;2022-12-18T04:21:56;101039.56;;;-0.75;100.00
23867;BME280;12114;53.404;-1.502;2022-12-18T04:24:22;101045.31;;;-0.76;100.00
23867;BME280;12114;53.404;-1.502;2022-12-18T04:26:47;101044.78;;;-0.73;100.00
23867;BME280;12114;53.404;-1.502;2022-12-18T04:29:13;101035.75;;;-0.74;100.00
23867;BME280;12114;53.404;-1.502;2022-12-18T04:31:38;101034.94;;;-0.74;100.00
23867;BME280;12114;53.404;-1.502;2022-12-18T04:34:04;101031.66;;;-0.76;100.00
23867;BME280;12114;53.404;-1.502;2022-12-18T04:36:29;101025.66;;;-0.78;100.00
23867;BME280;12114;53.404;-1.502;2022-12-18T04:38:55;101019.09;;;-0.82;100.00
23867;BME280;12114;53.404;-1.502;2022-12-18T04:41:21;101015.81;;;-0.84;100.00
23867;BME280;12114;53.404;-1.502;2022-12-18T04:43:47;101014.44;;;-0.87;100.00
23867;BME280;12114;53.404;-1.502;2022-12-18T04:46:12;101016.91;;;-0.85;100.00
23867;BME280;12114;53.404;-1.502;2022-12-18T04:48:38;101014.72;;;-0.83;100.00
23867;BME280;12114;53.404;-1.502;2022-12-18T04:51:05;101015.56;;;-0.83;100.00
23867;BME280;12114;53.404;-1.502;2022-12-18T04:53:31;101015.56;;;-0.83;100.00
23867;BME280;12114;53.404;-1.502;2022-12-18T04:56:11;101006.25;;;-0.82;100.00
23867;BME280;12114;53.404;-1.502;2022-12-18T04:58:39;101000.00;;;-0.82;100.00
23867;BME280;12114;53.404;-1.502;2022-12-18T05:01:05;100991.00;;;-0.78;100.00
23867;BME280;12114;53.404;-1.502;2022-12-18T05:03:34;100980.38;;;-0.74;100.00
23867;BME280;12114;53.404;-1.502;2022-12-18T05:06:00;100972.72;;;-0.72;100.00
23867;BME280;12114;53.404;-1.502;2022-12-18T05:08:26;100964.28;;;-0.71;100.00
23867;BME280;12114;53.404;-1.502;2022-12-18T05:11:06;100968.38;;;-0.63;100.00
23867;BME280;12114;53.404;-1.502;2022-12-18T05:13:32;100967.84;;;-0.60;100.00
23867;BME280;12114;53.404;-1.502;2022-12-18T05:15:58;100953.38;;;-0.56;100.00
23867;BME280;12114;53.404;-1.502;2022-12-18T05:18:25;100938.66;;;-0.49;100.00
23867;BME280;12114;53.404;-1.502;2022-12-18T05:20:51;100939.19;;;-0.42;100.00
23867;BME280;12114;53.404;-1.502;2022-12-18T05:23:18;100940.00;;;-0.32;100.00
23867;BME280;12114;53.404;-1.502;2022-12-18T05:28:20;100947.94;;;-0.25;100.00
23867;BME280;12114;53.404;-1.502;2022-12-18T05:30:50;100944.09;;;-0.19;100.00
23867;BME280;12114;53.404;-1.502;2022-12-18T05:33:16;100937.78;;;-0.15;100.00
23867;BME280;12114;53.404;-1.502;2022-12-18T05:35:42;100931.25;;;-0.19;100.00
23867;BME280;12114;53.404;-1.502;2022-12-18T05:38:07;100936.16;;;-0.21;100.00
23867;BME280;12114;53.404;-1.502;2022-12-18T05:40:33;100931.53;;;-0.25;100.00
23867;BME280;12114;53.404;-1.502;2022-12-18T05:42:59;100926.91;;;-0.25;100.00
23867;BME280;12114;53.404;-1.502;2022-12-18T05:45:28;100937.25;;;-0.27;100.00
23867;BME280;12114;53.404;-1.502;2022-12-18T05:47:54;100928.53;;;-0.19;100.00
23867;BME280;12114;53.404;-1.502;2022-12-18T05:50:19;100934.81;;;-0.13;100.00
23867;BME280;12114;53.404;-1.502;2022-12-18T05:52:44;100946.53;;;-0.08;100.00
23867;BME280;12114;53.404;-1.502;2022-12-18T05:55:10;100947.91;;;0.00;100.00
23867;BME280;12114;53.404;-1.502;2022-12-18T05:57:36;100951.44;;;0.06;100.00
23867;BME280;12114;53.404;-1.502;2022-12-18T06:00:02;100945.94;;;0.11;100.00
23867;BME280;12114;53.404;-1.502;2022-12-18T06:02:28;100945.91;;;0.16;100.00
23867;BME280;12114;53.404;-1.502;2022-12-18T06:04:54;100960.66;;;0.20;100.00
23867;BME280;12114;53.404;-1.502;2022-12-18T06:07:20;100954.66;;;0.23;100.00
23867;BME280;12114;53.404;-1.502;2022-12-18T06:09:45;100957.69;;;0.21;100.00
23867;BME280;12114;53.404;-1.502;2022-12-18T06:12:10;100961.75;;;0.19;100.00
23867;BME280;12114;53.404;-1.502;2022-12-18T06:14:36;100964.78;;;0.17;100.00
23867;BME280;12114;53.404;-1.502;2022-12-18T06:17:02;100940.75;;;0.14;100.00
23867;BME280;12114;53.404;-1.502;2022-12-18T06:19:27;100936.34;;;0.23;100.00
23867;BME280;12114;53.404;-1.502;2022-12-18T06:21:53;100932.25;;;0.21;100.00
23867;BME280;12114;53.404;-1.502;2022-12-18T06:24:18;100933.34;;;0.20;100.00
23867;BME280;12114;53.404;-1.502;2022-12-18T06:26:44;100941.28;;;0.21;100.00
23867;BME280;12114;53.404;-1.502;2022-12-18T06:29:10;100939.63;;;0.20;100.00
23867;BME280;12114;53.404;-1.502;2022-12-18T06:31:36;100937.72;;;0.26;100.00
23867;BME280;12114;53.404;-1.502;2022-12-18T06:34:03;100931.69;;;0.29;100.00
23867;BME280;12114;53.404;-1.502;2022-12-18T06:36:29;100930.03;;;0.33;100.00
23867;BME280;12114;53.404;-1.502;2022-12-18T06:38:54;100929.47;;;0.36;100.00
23867;BME280;12114;53.404;-1.502;2022-12-18T06:41:21;100926.19;;;0.39;100.00
23867;BME280;12114;53.404;-1.502;2022-12-18T06:43:47;100939.56;;;0.45;100.00
23867;BME280;12114;53.404;-1.502;2022-12-18T06:46:13;100950.19;;;0.47;100.00
23867;BME280;12114;53.404;-1.502;2022-12-18T06:48:39;100942.28;;;0.45;100.00
23867;BME280;12114;53.404;-1.502;2022-12-18T06:51:04;100949.63;;;0.50;100.00
23867;BME280;12114;53.404;-1.502;2022-12-18T06:53:31;100952.91;;;0.52;100.00
23867;BME280;12114;53.404;-1.502;2022-12-18T06:56:05;100943.34;;;0.49;100.00
23867;BME280;12114;53.404;-1.502;2022-12-18T06:58:32;100956.75;;;0.51;100.00
23867;BME280;12114;53.404;-1.502;2022-12-18T07:01:02;100947.72;;;0.50;100.00
23867;BME280;12114;53.404;-1.502;2022-12-18T07:03:28;100951.28;;;0.51;100.00
23867;BME280;12114;53.404;-1.502;2022-12-18T07:05:53;100940.91;;;0.43;100.00
23867;BME280;12114;53.404;-1.502;2022-12-18T07:08:19;100942.28;;;0.45;100.00
23867;BME280;12114;53.404;-1.502;2022-12-18T07:10:44;100931.63;;;0.44;100.00
23867;BME280;12114;53.404;-1.502;2022-12-18T07:13:10;100910.63;;;0.39;100.00
23867;BME280;12114;53.404;-1.502;2022-12-18T07:15:35;100911.72;;;0.33;100.00
23867;BME280;12114;53.404;-1.502;2022-12-18T07:18:01;100917.19;;;0.33;100.00
23867;BME280;12114;53.404;-1.502;2022-12-18T07:20:27;100913.09;;;0.36;100.00
23867;BME280;12114;53.404;-1.502;2022-12-18T07:22:52;100912.56;;;0.29;100.00
23867;BME280;12114;53.404;-1.502;2022-12-18T07:25:18;100924.28;;;0.34;100.00
23867;BME280;12114;53.404;-1.502;2022-12-18T07:27:43;100927.31;;;0.33;100.00
23867;BME280;12114;53.404;-1.502;2022-12-18T07:30:09;100914.72;;;0.32;100.00
23867;BME280;12114;53.404;-1.502;2022-12-18T07:32:35;100899.75;;;0.24;100.00
23867;BME280;12114;53.404;-1.502;2022-12-18T07:35:02;100906.00;;;0.30;100.00
23867;BME280;12114;53.404;-1.502;2022-12-18T07:37:28;100916.94;;;0.30;100.00
23867;BME280;12114;53.404;-1.502;2022-12-18T07:39:54;100907.38;;;0.27;100.00
23867;BME280;12114;53.404;-1.502;2022-12-18T07:42:20;100899.19;;;0.22;100.00
23867;BME280;12114;53.404;-1.502;2022-12-18T07:44:59;100891.81;;;0.23;100.00
23867;BME280;12114;53.404;-1.502;2022-12-18T07:47:25;100891.22;;;0.31;100.00
23867;BME280;12114;53.404;-1.502;2022-12-18T07:49:50;100897.25;;;0.28;100.00
23867;BME280;12114;53.404;-1.502;2022-12-18T07:52:16;100900.53;;;0.25;100.00
23867;BME280;12114;53.404;-1.502;2022-12-18T07:54:41;100892.59;;;0.28;100.00
23867;BME280;12114;53.404;-1.502;2022-12-18T07:57:07;100886.06;;;0.29;100.00
23867;BME280;12114;53.404;-1.502;2022-12-18T07:59:34;100883.63;;;0.23;100.00
23867;BME280;12114;53.404;-1.502;2022-12-18T08:01:59;100886.34;;;0.23;100.00
23867;BME280;12114;53.404;-1.502;2022-12-18T08:04:25;100895.09;;;0.20;100.00
23867;BME280;12114;53.404;-1.502;2022-12-18T08:06:51;100902.22;;;0.21;100.00
23867;BME280;12114;53.404;-1.502;2022-12-18T08:09:18;100908.22;;;0.23;100.00
23867;BME280;12114;53.404;-1.502;2022-12-18T08:11:43;100909.28;;;0.22;100.00
23867;BME280;12114;53.404;-1.502;2022-12-18T08:14:09;100903.28;;;0.25;100.00
23867;BME280;12114;53.404;-1.502;2022-12-18T08:16:35;100904.91;;;0.26;100.00
23867;BME280;12114;53.404;-1.502;2022-12-18T08:19:00;100911.47;;;0.25;100.00
23867;BME280;12114;53.404;-1.502;2022-12-18T08:21:28;100913.41;;;0.24;100.00
23867;BME280;12114;53.404;-1.502;2022-12-18T08:23:56;100916.94;;;0.25;100.00
23867;BME280;12114;53.404;-1.502;2022-12-18T08:26:22;100924.03;;;0.26;100.00
23867;BME280;12114;53.404;-1.502;2022-12-18T08:28:49;100924.56;;;0.28;100.00
23867;BME280;12114;53.404;-1.502;2022-12-18T08:31:15;100901.91;;;0.27;100.00
23867;BME280;12114;53.404;-1.502;2022-12-18T08:33:41;100913.66;;;0.28;100.00
23867;BME280;12114;53.404;-1.502;2022-12-18T08:36:08;100906.00;;;0.25;100.00
23867;BME280;12114;53.404;-1.502;2022-12-18T08:38:35;100916.38;;;0.28;100.00
23867;BME280;12114;53.404;-1.502;2022-12-18T08:41:01;100911.19;;;0.31;100.00
23867;BME280;12114;53.404;-1.502;2022-12-18T08:43:27;100912.81;;;0.32;100.00
23867;BME280;12114;53.404;-1.502;2022-12-18T08:46:12;100900.25;;;0.31;100.00
23867;BME280;12114;53.404;-1.502;2022-12-18T08:48:41;100897.81;;;0.30;100.00
23867;BME280;12114;53.404;-1.502;2022-12-18T08:51:06;100893.16;;;0.30;100.00
23867;BME280;12114;53.404;-1.502;2022-12-18T08:53:32;100894.50;;;0.28;100.00
23867;BME280;12114;53.404;-1.502;2022-12-18T08:55:57;100878.69;;;0.30;100.00
23867;BME280;12114;53.404;-1.502;2022-12-18T08:58:23;100878.94;;;0.28;100.00
23867;BME280;12114;53.404;-1.502;2022-12-18T09:00:48;100867.47;;;0.31;100.00
23867;BME280;12114;53.404;-1.502;2022-12-18T09:03:15;100866.94;;;0.29;100.00
23867;BME280;12114;53.404;-1.502;2022-12-18T09:05:42;100871.31;;;0.25;100.00
23867;BME280;12114;53.404;-1.502;2022-12-18T09:08:07;100866.97;;;0.24;100.00
23867;BME280;12114;53.404;-1.502;2022-12-18T09:10:34;100864.47;;;0.28;100.00
23867;BME280;12114;53.404;-1.502;2022-12-18T09:13:06;100855.22;;;0.24;100.00
23867;BME280;12114;53.404;-1.502;2022-12-18T09:15:32;100861.19;;;0.26;100.00
23867;BME280;12114;53.404;-1.502;2022-12-18T09:17:58;100862.84;;;0.27;100.00
23867;BME280;12114;53.404;-1.502;2022-12-18T09:20:23;100853.53;;;0.28;100.00
23867;BME280;12114;53.404;-1.502;2022-12-18T09:22:49;100845.34;;;0.28;100.00
23867;BME280;12114;53.404;-1.502;2022-12-18T09:25:15;100840.13;;;0.31;100.00
23867;BME280;12114;53.404;-1.502;2022-12-18T09:27:40;100828.94;;;0.33;100.00
23867;BME280;12114;53.404;-1.502;2022-12-18T09:30:06;100818.56;;;0.30;100.00
23867;BME280;12114;53.404;-1.502;2022-12-18T09:32:32;100807.63;;;0.30;100.00
23867;BME280;12114;53.404;-1.502;2022-12-18T09:34:57;100804.09;;;0.29;100.00
23867;BME280;12114;53.404;-1.502;2022-12-18T09:37:23;100799.94;;;0.37;100.00
23867;BME280;12114;53.404;-1.502;2022-12-18T09:39:49;100792.56;;;0.37;100.00
23867;BME280;12114;53.404;-1.502;2022-12-18T09:42:22;100805.38;;;0.42;100.00
23867;BME280;12114;53.404;-1.502;2022-12-18T09:44:51;100801.53;;;0.43;100.00
23867;BME280;12114;53.404;-1.502;2022-12-18T09:47:35;100788.41;;;0.45;100.00
23867;BME280;12114;53.404;-1.502;2022-12-18T09:50:06;100769.28;;;0.45;100.00
23867;BME280;12114;53.404;-1.502;2022-12-18T09:52:45;100769.28;;;0.45;100.00
23867;BME280;12114;53.404;-1.502;2022-12-18T09:57:56;100772.47;;;0.57;100.00
23867;BME280;12114;53.404;-1.502;2022-12-18T10:00:24;100774.09;;;0.58;100.00
23867;BME280;12114;53.404;-1.502;2022-12-18T10:03:01;100765.56;;;0.65;100.00
23867;BME280;12114;53.404;-1.502;2022-12-18T10:11:11;100777.84;;;0.67;100.00
23867;BME280;12114;53.404;-1.502;2022-12-18T10:13:45;100775.13;;;0.67;100.00
23867;BME280;12114;53.404;-1.502;2022-12-18T10:25:05;100743.13;;;0.68;100.00
23867;BME280;12114;53.404;-1.502;2022-12-18T10:27:35;100738.78;;;0.67;100.00
23867;BME280;12114;53.404;-1.502;2022-12-18T10:30:04;100727.50;;;0.73;100.00
23867;BME280;12114;53.404;-1.502;2022-12-18T10:32:30;100725.88;;;0.72;100.00
23867;BME280;12114;53.404;-1.502;2022-12-18T10:34:58;100712.22;;;0.72;100.00
23867;BME280;12114;53.404;-1.502;2022-12-18T10:37:25;100708.09;;;0.75;100.00
23867;BME280;12114;53.404;-1.502;2022-12-18T10:42:32;100711.84;;;0.84;100.00
23867;BME280;12114;53.404;-1.502;2022-12-18T10:45:11;100706.63;;;0.87;100.00
23867;BME280;12114;53.404;-1.502;2022-12-18T10:47:43;100693.19;;;0.91;100.00
23867;BME280;12114;53.404;-1.502;2022-12-18T10:50:24;100693.94;;;0.96;100.00
23867;BME280;12114;53.404;-1.502;2022-12-18T10:52:57;100687.31;;;1.02;100.00
23867;BME280;12114;53.404;-1.502;2022-12-18T10:55:32;100677.97;;;1.03;100.00
23867;BME280;12114;53.404;-1.502;2022-12-18T11:03:34;100663.09;;;1.15;100.00
23867;BME280;12114;53.404;-1.502;2022-12-18T11:06:08;100663.03;;;1.20;100.00
23867;BME280;12114;53.404;-1.502;2022-12-18T11:08:34;100660.06;;;1.16;100.00
23867;BME280;12114;53.404;-1.502;2022-12-18T11:11:00;100645.56;;;1.16;100.00
23867;BME280;12114;53.404;-1.502;2022-12-18T11:13:29;100636.84;;;1.14;100.00
23867;BME280;12114;53.404;-1.502;2022-12-18T11:15:58;100626.47;;;1.10;100.00
23867;BME280;12114;53.404;-1.502;2022-12-18T11:18:30;100629.16;;;1.16;100.00
23867;BME280;12114;53.404;-1.502;2022-12-18T11:21:09;100644.19;;;1.18;100.00
23867;BME280;12114;53.404;-1.502;2022-12-18T11:23:36;100637.91;;;1.18;100.00
23867;BME280;12114;53.404;-1.502;2022-12-18T11:26:08;100619.84;;;1.17;100.00
23867;BME280;12114;53.404;-1.502;2022-12-18T11:29:10;100617.00;;;1.27;100.00
23867;BME280;12114;53.404;-1.502;2022-12-18T11:31:28;100617.59;;;1.24;100.00
23867;BME280;12114;53.404;-1.502;2022-12-18T11:36:42;100602.13;;;1.33;100.00
23867;BME280;12114;53.404;-1.502;2022-12-18T11:39:30;100594.97;;;1.37;100.00
23867;BME280;12114;53.404;-1.502;2022-12-18T11:42:12;100582.31;;;1.41;100.00
23867;BME280;12114;53.404;-1.502;2022-12-18T11:44:54;100582.91;;;1.38;100.00
23867;BME280;12114;53.404;-1.502;2022-12-18T11:47:44;100576.91;;;1.36;100.00
23867;BME280;12114;53.404;-1.502;2022-12-18T11:50:48;100565.06;;;1.40;100.00
23867;BME280;12114;53.404;-1.502;2022-12-18T11:53:15;100558.59;;;1.36;100.00
23867;BME280;12114;53.404;-1.502;2022-12-18T11:56:00;100545.56;;;1.47;100.00
23867;BME280;12114;53.404;-1.502;2022-12-18T12:01:24;100536.75;;;1.50;100.00
23867;BME280;12114;53.404;-1.502;2022-12-18T12:09:35;100513.75;;;1.51;100.00
23867;BME280;12114;53.404;-1.502;2022-12-18T12:14:55;100491.25;;;1.54;100.00
23867;BME280;12114;53.404;-1.502;2022-12-18T12:20:06;100477.19;;;1.60;100.00
23867;BME280;12114;53.404;-1.502;2022-12-18T12:23:00;100469.78;;;1.61;100.00
23867;BME280;12114;53.404;-1.502;2022-12-18T12:25:50;100470.28;;;1.63;100.00
23867;BME280;12114;53.404;-1.502;2022-12-18T12:34:30;100452.34;;;1.71;100.00
23867;BME280;12114;53.404;-1.502;2022-12-18T12:39:51;100435.25;;;1.79;100.00
23867;BME280;12114;53.404;-1.502;2022-12-18T12:42:31;100435.97;;;1.84;100.00
23867;BME280;12114;53.404;-1.502;2022-12-18T12:45:26;100425.75;;;1.90;100.00
23867;BME280;12114;53.404;-1.502;2022-12-18T12:47:54;100421.69;;;1.87;100.00
23867;BME280;12114;53.404;-1.502;2022-12-18T12:50:22;100426.13;;;1.83;100.00
23867;BME280;12114;53.404;-1.502;2022-12-18T12:53:30;100420.16;;;1.81;100.00
23867;BME280;12114;53.404;-1.502;2022-12-18T12:56:02;100413.63;;;1.77;100.00
23867;BME280;12114;53.404;-1.502;2022-12-18T12:59:26;100405.13;;;1.79;100.00
23867;BME280;12114;53.404;-1.502;2022-12-18T13:09:14;100397.81;;;1.74;100.00
23867;BME280;12114;53.404;-1.502;2022-12-18T13:11:47;100397.13;;;1.82;100.00
23867;BME280;12114;53.404;-1.502;2022-12-18T13:14:40;100381.91;;;1.76;100.00
23867;BME280;12114;53.404;-1.502;2022-12-18T13:22:28;100358.88;;;1.77;100.00
23867;BME280;12114;53.404;-1.502;2022-12-18T13:24:54;100344.19;;;1.73;100.00
23867;BME280;12114;53.404;-1.502;2022-12-18T13:28:09;100341.13;;;1.75;100.00
23867;BME280;12114;53.404;-1.502;2022-12-18T13:35:52;100324.47;;;1.71;100.00
23867;BME280;12114;53.404;-1.502;2022-12-18T13:38:23;100328.75;;;1.77;100.00
23867;BME280;12114;53.404;-1.502;2022-12-18T13:43:45;100304.19;;;1.72;100.00
23867;BME280;12114;53.404;-1.502;2022-12-18T13:49:05;100290.28;;;1.69;100.00
23867;BME280;12114;53.404;-1.502;2022-12-18T13:51:41;100283.41;;;1.71;100.00
23867;BME280;12114;53.404;-1.502;2022-12-18T13:56:47;100278.13;;;1.75;100.00
23867;BME280;12114;53.404;-1.502;2022-12-18T13:59:24;100273.34;;;1.80;100.00
23867;BME280;12114;53.404;-1.502;2022-12-18T14:06:46;100257.75;;;1.81;100.00
23867;BME280;12114;53.404;-1.502;2022-12-18T14:09:15;100252.88;;;1.78;100.00
23867;BME280;12114;53.404;-1.502;2022-12-18T14:11:47;100237.66;;;1.72;100.00
23867;BME280;12114;53.404;-1.502;2022-12-18T14:14:16;100228.97;;;1.70;100.00
23867;BME280;12114;53.404;-1.502;2022-12-18T14:16:42;100226.50;;;1.68;100.00
23867;BME280;12114;53.404;-1.502;2022-12-18T14:19:14;100214.56;;;1.64;100.00
23867;BME280;12114;53.404;-1.502;2022-12-18T14:21:40;100219.00;;;1.60;100.00
23867;BME280;12114;53.404;-1.502;2022-12-18T14:26:34;100210.69;;;1.65;100.00
23867;BME280;12114;53.404;-1.502;2022-12-18T14:29:16;100199.72;;;1.65;100.00
23867;BME280;12114;53.404;-1.502;2022-12-18T14:31:43;100198.75;;;1.61;100.00
23867;BME280;12114;53.404;-1.502;2022-12-18T14:34:16;100199.25;;;1.63;100.00
23867;BME280;12114;53.404;-1.502;2022-12-18T14:36:51;100189.59;;;1.65;100.00
23867;BME280;12114;53.404;-1.502;2022-12-18T14:39:17;100202.78;;;1.63;100.00
23867;BME280;12114;53.404;-1.502;2022-12-18T14:41:43;100195.91;;;1.66;100.00
23867;BME280;12114;53.404;-1.502;2022-12-18T14:44:12;100193.28;;;1.61;100.00
23867;BME280;12114;53.404;-1.502;2022-12-18T14:46:39;100192.13;;;1.62;100.00
23867;BME280;12114;53.404;-1.502;2022-12-18T14:51:56;100191.03;;;1.63;100.00
23867;BME280;12114;53.404;-1.502;2022-12-18T14:54:27;100183.91;;;1.62;100.00